createdAt,value
2017-11-23T00:01:23.749Z,49.03
2017-11-23T00:03:51.353Z,45.07
2017-11-23T00:06:18.971Z,35.23
2017-11-23T00:08:46.559Z,46.83
2017-11-23T00:11:14.555Z,40.13
2017-11-23T00:13:42.257Z,31.43
2017-11-23T00:16:22.567Z,25.73
2017-11-23T00:18:50.156Z,22.17
2017-11-23T00:21:17.742Z,20.40
2017-11-23T00:23:52.323Z,19.97
2017-11-23T00:26:19.917Z,24.97
2017-11-23T00:28:47.518Z,19.10
2017-11-23T00:31:15.139Z,19.57
2017-11-23T00:33:42.712Z,17.70
2017-11-23T00:36:10.733Z,17.00
2017-11-23T00:38:38.319Z,16.20
2017-11-23T00:41:06.240Z,13.23
2017-11-23T00:43:33.861Z,11.10
2017-11-23T00:46:01.447Z,12.60
2017-11-23T00:48:29.324Z,11.17
2017-11-23T00:50:56.938Z,13.20
2017-11-23T00:53:24.551Z,12.13
2017-11-23T00:55:52.180Z,10.10
2017-11-23T00:58:22.714Z,8.80
2017-11-23T01:00:50.303Z,10.10
2017-11-23T01:03:28.392Z,11.07
2017-11-23T01:05:55.989Z,8.83
2017-11-23T01:08:27.382Z,7.07
2017-11-23T01:10:55.035Z,7.80
2017-11-23T01:13:24.312Z,5.70
2017-11-23T01:15:51.951Z,6.70
2017-11-23T01:18:30.088Z,6.90
2017-11-23T01:20:57.697Z,6.80
2017-11-23T01:23:25.624Z,6.67
2017-11-23T01:25:53.265Z,6.10
2017-11-23T01:28:20.883Z,7.00
2017-11-23T01:30:48.471Z,7.43
2017-11-23T01:33:17.205Z,7.37
2017-11-23T01:35:44.815Z,6.90
2017-11-23T01:38:12.410Z,8.10
2017-11-23T01:40:40.206Z,8.17
2017-11-23T01:43:07.836Z,8.50
2017-11-23T01:45:35.409Z,8.47
2017-11-23T01:48:02.992Z,7.27
2017-11-23T01:50:30.623Z,7.60
2017-11-23T01:52:58.192Z,6.70
2017-11-23T01:55:25.810Z,8.53
2017-11-23T01:57:53.792Z,7.60
2017-11-23T02:00:21.351Z,7.93
2017-11-23T02:02:48.935Z,7.60
2017-11-23T02:05:16.568Z,7.37
2017-11-23T02:07:45.167Z,6.97
2017-11-23T02:10:12.774Z,7.40
2017-11-23T02:12:40.388Z,7.47
2017-11-23T02:15:11.228Z,8.20
2017-11-23T02:17:38.853Z,7.67
2017-11-23T02:20:07.082Z,7.80
2017-11-23T02:22:34.676Z,8.13
2017-11-23T02:25:02.275Z,7.67
2017-11-23T02:27:29.854Z,7.70
2017-11-23T02:29:57.455Z,6.57
2017-11-23T02:32:38.002Z,7.93
2017-11-23T02:35:06.024Z,6.93
2017-11-23T02:37:40.035Z,6.83
2017-11-23T02:40:11.056Z,7.20
2017-11-23T02:42:38.621Z,6.20
2017-11-23T02:45:06.203Z,7.17
2017-11-23T02:47:40.388Z,6.77
2017-11-23T02:50:14.023Z,7.23
2017-11-23T02:52:41.639Z,7.10
2017-11-23T02:55:09.239Z,6.80
2017-11-23T02:57:39.846Z,6.73
2017-11-23T03:00:10.818Z,6.80
2017-11-23T03:02:39.021Z,6.60
2017-11-23T03:07:39.872Z,6.97
2017-11-23T03:10:07.617Z,7.23
2017-11-23T03:15:13.710Z,7.37
2017-11-23T03:17:41.259Z,7.20
2017-11-23T03:20:08.870Z,7.47
2017-11-23T03:22:36.495Z,8.07
2017-11-23T03:25:04.128Z,7.37
2017-11-23T03:27:31.724Z,8.20
2017-11-23T03:29:59.568Z,8.37
2017-11-23T03:32:27.139Z,8.40
2017-11-23T03:34:54.774Z,9.50
2017-11-23T03:37:22.358Z,9.80
2017-11-23T03:39:49.921Z,8.80
2017-11-23T03:42:17.562Z,10.90
2017-11-23T03:44:45.135Z,10.30
2017-11-23T03:47:13.099Z,10.33
2017-11-23T03:49:40.690Z,10.67
2017-11-23T03:52:08.265Z,9.80
2017-11-23T03:54:35.902Z,9.10
2017-11-23T03:57:03.454Z,10.30
2017-11-23T03:59:31.018Z,10.00
2017-11-23T04:01:58.578Z,9.00
2017-11-23T04:04:26.129Z,9.73
2017-11-23T04:06:53.749Z,10.10
2017-11-23T04:09:21.319Z,9.90
2017-11-23T04:11:48.874Z,9.20
2017-11-23T04:14:16.464Z,8.70
2017-11-23T04:16:44.059Z,9.23
2017-11-23T04:19:12.048Z,9.50
2017-11-23T04:21:39.609Z,8.83
2017-11-23T04:24:07.167Z,9.27
2017-11-23T04:26:34.725Z,9.07
2017-11-23T04:29:02.286Z,8.10
2017-11-23T04:31:29.898Z,8.30
2017-11-23T04:33:57.450Z,8.47
2017-11-23T04:36:25.407Z,8.17
2017-11-23T04:38:52.964Z,8.77
2017-11-23T04:41:20.521Z,8.70
2017-11-23T04:43:48.118Z,9.17
2017-11-23T04:46:15.696Z,8.20
2017-11-23T04:48:43.262Z,8.00
2017-11-23T04:51:10.818Z,8.07
2017-11-23T04:53:38.433Z,8.20
2017-11-23T04:56:06.075Z,7.23
2017-11-23T04:58:33.733Z,7.40
2017-11-23T05:01:01.323Z,7.90
2017-11-23T05:03:28.920Z,8.70
2017-11-23T05:05:56.516Z,9.43
2017-11-23T05:08:24.080Z,8.33
2017-11-23T05:10:52.113Z,8.50
2017-11-23T05:13:19.731Z,8.23
2017-11-23T05:15:47.327Z,8.33
2017-11-23T05:18:14.907Z,8.43
2017-11-23T05:20:42.492Z,8.60
2017-11-23T05:23:10.075Z,9.47
2017-11-23T05:25:37.634Z,9.03
2017-11-23T05:28:05.241Z,7.90
2017-11-23T05:30:32.854Z,8.13
2017-11-23T05:33:00.431Z,8.53
2017-11-23T05:35:28.017Z,8.40
2017-11-23T05:37:55.671Z,7.97
2017-11-23T05:40:23.298Z,8.33
2017-11-23T05:42:50.869Z,8.60
2017-11-23T05:45:18.545Z,8.03
2017-11-23T05:47:46.132Z,9.60
2017-11-23T05:50:13.717Z,8.97
2017-11-23T05:52:41.357Z,10.13
2017-11-23T05:55:08.919Z,7.90
2017-11-23T05:57:36.520Z,7.80
2017-11-23T06:00:04.129Z,7.53
2017-11-23T06:02:31.720Z,8.17
2017-11-23T06:04:59.726Z,7.60
2017-11-23T06:07:27.279Z,8.20
2017-11-23T06:09:54.844Z,9.17
2017-11-23T06:12:22.421Z,9.30
2017-11-23T06:14:50.029Z,10.60
2017-11-23T06:17:17.681Z,7.77
2017-11-23T06:19:45.297Z,7.83
2017-11-23T06:22:12.880Z,8.20
2017-11-23T06:24:40.502Z,7.60
2017-11-23T06:27:08.068Z,6.90
2017-11-23T06:29:36.118Z,7.57
2017-11-23T06:32:03.720Z,6.20
2017-11-23T06:34:31.292Z,6.43
2017-11-23T06:36:58.888Z,7.30
2017-11-23T06:39:26.464Z,6.73
2017-11-23T06:41:54.417Z,6.93
2017-11-23T06:44:22.011Z,8.73
2017-11-23T06:46:49.606Z,9.37
2017-11-23T06:49:17.213Z,9.00
2017-11-23T06:51:44.869Z,13.73
2017-11-23T06:54:12.499Z,10.10
2017-11-23T06:56:40.042Z,7.47
2017-11-23T06:59:08.062Z,6.50
2017-11-23T07:01:35.619Z,6.87
2017-11-23T07:04:03.204Z,6.27
2017-11-23T07:06:30.797Z,6.53
2017-11-23T07:08:58.381Z,6.77
2017-11-23T07:11:26.288Z,6.47
2017-11-23T07:13:53.900Z,5.87
2017-11-23T07:16:21.498Z,7.10
2017-11-23T07:18:49.070Z,8.80
2017-11-23T07:21:16.632Z,6.27
2017-11-23T07:23:44.277Z,5.73
2017-11-23T07:26:11.871Z,7.17
2017-11-23T07:28:39.463Z,6.37
2017-11-23T07:31:07.054Z,6.70
2017-11-23T07:33:34.661Z,6.20
2017-11-23T07:36:02.222Z,7.00
2017-11-23T07:38:29.785Z,5.77
2017-11-23T07:40:57.377Z,7.20
2017-11-23T07:43:24.984Z,6.77
2017-11-23T07:45:52.565Z,6.67
2017-11-23T07:48:20.134Z,7.50
2017-11-23T07:50:47.733Z,7.47
2017-11-23T07:53:15.354Z,6.60
2017-11-23T07:55:42.915Z,7.23
2017-11-23T07:58:10.536Z,10.60
2017-11-23T08:00:38.131Z,14.53
2017-11-23T08:03:05.744Z,16.93
2017-11-23T08:05:33.314Z,17.10
2017-11-23T08:08:00.894Z,15.30
2017-11-23T08:10:28.532Z,15.93
2017-11-23T08:12:56.129Z,15.20
2017-11-23T08:15:23.840Z,14.60
2017-11-23T08:17:51.419Z,14.10
2017-11-23T08:20:19.030Z,12.07
2017-11-23T08:22:46.626Z,12.00
2017-11-23T08:25:14.191Z,12.07
2017-11-23T08:27:41.803Z,12.10
2017-11-23T08:30:09.379Z,11.10
2017-11-23T08:32:36.985Z,11.77
2017-11-23T08:35:04.557Z,10.73
2017-11-23T08:37:32.124Z,9.63
2017-11-23T08:39:59.714Z,9.17
2017-11-23T08:42:27.287Z,7.80
2017-11-23T08:44:54.912Z,6.60
2017-11-23T08:47:22.484Z,7.00
2017-11-23T08:49:50.060Z,8.80
2017-11-23T08:52:20.584Z,9.07
2017-11-23T08:54:53.502Z,8.40
2017-11-23T08:57:21.089Z,8.67
2017-11-23T08:59:48.641Z,6.40
2017-11-23T09:02:16.247Z,6.87
2017-11-23T09:04:43.803Z,7.50
2017-11-23T09:07:11.394Z,7.20
2017-11-23T09:09:38.972Z,6.50
2017-11-23T09:12:09.151Z,6.80
2017-11-23T09:14:36.839Z,7.37
2017-11-23T09:17:04.413Z,7.57
2017-11-23T09:19:32.015Z,6.60
2017-11-23T09:21:59.558Z,4.63
2017-11-23T09:24:27.110Z,4.77
2017-11-23T09:26:54.766Z,5.17
2017-11-23T09:29:22.383Z,4.93
2017-11-23T09:31:50.293Z,5.03
2017-11-23T09:34:17.854Z,4.50
2017-11-23T09:36:45.402Z,5.30
2017-11-23T09:39:12.973Z,5.37
2017-11-23T09:41:40.737Z,4.80
2017-11-23T09:44:08.737Z,5.43
2017-11-23T09:46:36.326Z,5.30
2017-11-23T09:49:03.894Z,5.50
2017-11-23T09:51:31.530Z,4.77
2017-11-23T09:53:59.159Z,5.23
2017-11-23T09:56:26.784Z,4.97
2017-11-23T09:58:54.360Z,5.00
2017-11-23T10:01:21.938Z,5.50
2017-11-23T10:03:49.508Z,5.30
2017-11-23T10:06:17.142Z,5.60
2017-11-23T10:08:44.719Z,6.17
2017-11-23T10:11:12.293Z,5.90
2017-11-23T10:13:39.972Z,5.27
2017-11-23T10:16:07.555Z,5.17
2017-11-23T10:18:35.143Z,4.90
2017-11-23T10:21:02.705Z,5.50
2017-11-23T10:23:30.318Z,5.37
2017-11-23T10:25:57.935Z,5.67
2017-11-23T10:28:25.540Z,6.20
2017-11-23T10:30:53.126Z,6.00
2017-11-23T10:33:20.736Z,5.10
2017-11-23T10:35:48.362Z,6.00
2017-11-23T10:38:15.940Z,6.63
2017-11-23T10:40:43.510Z,6.00
2017-11-23T10:43:11.144Z,5.77
2017-11-23T10:45:38.709Z,5.90
2017-11-23T10:48:06.299Z,6.03
2017-11-23T10:50:33.878Z,5.97
2017-11-23T10:53:01.439Z,6.40
2017-11-23T10:55:29.023Z,5.70
2017-11-23T10:57:56.687Z,5.40
2017-11-23T11:00:24.274Z,6.17
2017-11-23T11:02:51.847Z,5.97
2017-11-23T11:05:19.420Z,5.10
2017-11-23T11:07:47.005Z,5.73
2017-11-23T11:10:14.570Z,5.30
2017-11-23T11:12:42.136Z,6.30
2017-11-23T11:15:09.728Z,6.27
2017-11-23T11:17:37.356Z,5.57
2017-11-23T11:20:04.941Z,5.90
2017-11-23T11:22:32.514Z,6.60
2017-11-23T11:25:00.097Z,5.37
2017-11-23T11:27:27.655Z,5.43
2017-11-23T11:29:55.264Z,6.57
2017-11-23T11:32:22.841Z,5.90
2017-11-23T11:34:50.402Z,5.20
2017-11-23T11:37:18.054Z,6.50
2017-11-23T11:39:45.639Z,5.43
2017-11-23T11:42:13.254Z,5.63
2017-11-23T11:44:40.826Z,6.23
2017-11-23T11:47:08.437Z,5.73
2017-11-23T11:49:35.994Z,6.90
2017-11-23T11:52:03.580Z,9.23
2017-11-23T11:54:31.498Z,9.17
2017-11-23T11:56:59.082Z,7.33
2017-11-23T11:59:26.688Z,7.40
2017-11-23T12:01:54.277Z,7.37
2017-11-23T12:04:21.880Z,6.07
2017-11-23T12:06:49.455Z,6.37
2017-11-23T12:09:17.017Z,6.70
2017-11-23T12:11:44.610Z,6.90
2017-11-23T12:14:24.043Z,6.90
2017-11-23T12:17:03.222Z,7.10
2017-11-23T12:19:42.680Z,6.30
2017-11-23T12:22:22.090Z,6.03
2017-11-23T12:25:01.540Z,5.10
2017-11-23T12:27:40.932Z,4.67
2017-11-23T12:30:12.460Z,5.50
2017-11-23T12:32:40.047Z,5.13
2017-11-23T12:35:07.611Z,5.60
2017-11-23T12:37:35.229Z,5.60
2017-11-23T12:40:02.793Z,4.87
2017-11-23T12:42:30.343Z,4.97
2017-11-23T12:44:58.097Z,5.30
2017-11-23T12:47:25.671Z,5.53
2017-11-23T12:49:53.549Z,6.00
2017-11-23T12:52:21.125Z,5.87
2017-11-23T12:54:48.701Z,5.80
2017-11-23T12:57:16.307Z,5.20
2017-11-23T12:59:43.874Z,5.27
2017-11-23T13:02:11.479Z,5.50
2017-11-23T13:04:39.072Z,4.50
2017-11-23T13:07:06.657Z,5.17
2017-11-23T13:09:34.252Z,4.80
2017-11-23T13:12:01.817Z,5.80
2017-11-23T13:14:29.413Z,6.10
2017-11-23T13:16:57.061Z,4.80
2017-11-23T13:19:24.703Z,6.00
2017-11-23T13:21:52.326Z,5.17
2017-11-23T13:24:19.927Z,5.30
2017-11-23T13:26:47.555Z,5.90
2017-11-23T13:29:15.168Z,5.60
2017-11-23T13:31:42.781Z,5.07
2017-11-23T13:34:10.413Z,5.10
2017-11-23T13:36:38.036Z,5.30
2017-11-23T13:39:05.632Z,4.93
2017-11-23T13:41:33.217Z,4.90
2017-11-23T13:44:00.851Z,6.90
2017-11-23T13:46:28.454Z,7.30
2017-11-23T13:48:56.484Z,6.20
2017-11-23T13:51:24.054Z,6.47
2017-11-23T13:53:51.641Z,7.73
2017-11-23T13:56:19.354Z,8.20
2017-11-23T13:58:46.931Z,6.40
2017-11-23T14:01:14.544Z,6.97
2017-11-23T14:03:42.141Z,5.80
2017-11-23T14:06:09.720Z,6.90
2017-11-23T14:08:37.306Z,8.03
2017-11-23T14:11:04.873Z,6.90
2017-11-23T14:13:32.531Z,6.40
2017-11-23T14:16:00.113Z,8.03
2017-11-23T14:18:28.098Z,6.63
2017-11-23T14:20:55.703Z,6.80
2017-11-23T14:23:23.424Z,7.20
2017-11-23T14:25:51.043Z,7.70
2017-11-23T14:28:18.621Z,9.77
2017-11-23T14:30:46.404Z,7.03
2017-11-23T14:33:14.419Z,8.90
2017-11-23T14:35:42.125Z,8.30
2017-11-23T14:38:09.729Z,7.17
2017-11-23T14:40:37.316Z,8.90
2017-11-23T14:43:04.928Z,8.40
2017-11-23T14:45:32.543Z,9.70
2017-11-23T14:48:00.139Z,10.30
2017-11-23T14:50:27.718Z,8.77
2017-11-23T14:52:55.339Z,10.07
2017-11-23T14:55:22.944Z,10.30
2017-11-23T14:57:51.038Z,11.37
2017-11-23T15:00:18.657Z,11.40
2017-11-23T15:02:46.248Z,11.60
2017-11-23T15:05:13.867Z,11.93
2017-11-23T15:07:41.475Z,11.37
2017-11-23T15:10:09.118Z,12.33
2017-11-23T15:12:36.694Z,12.70
2017-11-23T15:15:04.255Z,14.77
2017-11-23T15:17:31.839Z,13.70
2017-11-23T15:19:59.430Z,12.50
2017-11-23T15:22:27.084Z,15.10
2017-11-23T15:24:54.637Z,18.30
2017-11-23T15:27:22.274Z,17.73
2017-11-23T15:29:49.852Z,17.33
2017-11-23T15:32:17.445Z,15.47
2017-11-23T15:34:45.034Z,13.37
2017-11-23T15:37:12.628Z,18.37
2017-11-23T15:39:40.249Z,16.60
2017-11-23T15:42:07.815Z,16.80
2017-11-23T15:44:35.462Z,14.97
2017-11-23T15:47:03.060Z,12.70
2017-11-23T15:49:30.654Z,10.30
2017-11-23T15:51:58.257Z,11.50
2017-11-23T15:54:25.862Z,11.93
2017-11-23T15:56:53.509Z,18.00
2017-11-23T15:59:21.112Z,15.80
2017-11-23T16:01:48.742Z,20.30
2017-11-23T16:04:16.346Z,15.90
2017-11-23T16:06:43.948Z,17.47
2017-11-23T16:09:11.568Z,21.93
2017-11-23T16:11:39.132Z,20.70
2017-11-23T16:14:06.758Z,15.23
2017-11-23T16:16:34.335Z,9.30
2017-11-23T16:19:01.938Z,8.90
2017-11-23T16:21:29.539Z,8.77
2017-11-23T16:23:57.115Z,10.40
2017-11-23T16:26:25.136Z,10.30
2017-11-23T16:28:52.749Z,10.30
2017-11-23T16:31:20.308Z,8.20
2017-11-23T16:33:47.895Z,9.20
2017-11-23T16:36:15.983Z,8.10
2017-11-23T16:42:06.121Z,9.70
2017-11-23T16:47:45.613Z,11.53
2017-11-23T16:50:24.150Z,9.57
2017-11-23T16:56:00.629Z,12.43
2017-11-23T16:58:33.952Z,13.23
2017-11-23T17:01:07.515Z,16.07
2017-11-23T17:03:41.120Z,13.37
2017-11-23T17:06:25.877Z,13.30
2017-11-23T17:12:04.615Z,19.40
2017-11-23T17:14:38.094Z,16.27
2017-11-23T17:17:08.011Z,21.17
2017-11-23T17:19:35.985Z,17.90
2017-11-23T17:22:03.849Z,18.83
2017-11-23T17:24:32.288Z,17.20
2017-11-23T17:27:00.284Z,18.80
2017-11-23T17:29:28.181Z,21.60
2017-11-23T17:31:56.327Z,23.27
2017-11-23T17:34:24.332Z,23.10
2017-11-23T17:36:54.055Z,24.27
2017-11-23T17:39:22.077Z,24.13
2017-11-23T17:41:51.519Z,24.40
2017-11-23T17:44:21.220Z,21.40
2017-11-23T17:46:50.800Z,19.00
2017-11-23T17:49:18.824Z,16.97
2017-11-23T17:51:47.002Z,16.53
2017-11-23T17:54:14.989Z,16.80
2017-11-23T17:56:44.969Z,13.63
2017-11-23T17:59:15.990Z,14.73
2017-11-23T18:01:43.977Z,15.30
2017-11-23T18:04:11.867Z,13.80
2017-11-23T18:06:40.243Z,12.60
2017-11-23T18:09:08.110Z,9.90
2017-11-23T18:11:36.184Z,12.50
2017-11-23T18:14:04.258Z,9.90
2017-11-23T18:16:33.407Z,11.20
2017-11-23T18:19:02.315Z,10.93
2017-11-23T18:21:30.287Z,11.40
2017-11-23T18:23:59.013Z,10.13
2017-11-23T18:26:30.786Z,12.17
2017-11-23T18:28:58.854Z,11.60
2017-11-23T18:31:27.122Z,87.37
2017-11-23T18:33:55.514Z,42.10
2017-11-23T18:36:25.281Z,25.27
2017-11-23T18:38:54.231Z,21.00
2017-11-23T18:41:24.864Z,17.50
2017-11-23T18:43:52.940Z,20.03
2017-11-23T18:46:22.335Z,20.90
2017-11-23T18:48:53.977Z,25.97
2017-11-23T18:51:23.005Z,26.37
2017-11-23T18:53:52.098Z,24.87
2017-11-23T18:56:20.282Z,24.23
2017-11-23T18:58:49.271Z,24.10
2017-11-23T19:01:18.516Z,24.10
2017-11-23T19:03:54.124Z,32.03
2017-11-23T19:06:22.302Z,40.60
2017-11-23T19:08:51.515Z,40.30
2017-11-23T19:11:19.738Z,37.90
2017-11-23T19:13:47.867Z,32.30
2017-11-23T19:16:16.090Z,23.33
2017-11-23T19:18:44.910Z,17.70
2017-11-23T19:21:13.193Z,17.40
2017-11-23T19:23:43.015Z,19.70
2017-11-23T19:26:11.195Z,30.13
2017-11-23T19:28:39.472Z,24.27
2017-11-23T19:31:07.818Z,24.87
2017-11-23T19:33:36.068Z,27.33
2017-11-23T19:36:04.108Z,27.80
2017-11-23T19:38:32.740Z,30.43
2017-11-23T19:41:01.756Z,29.80
2017-11-23T19:43:30.770Z,27.37
2017-11-23T19:46:00.686Z,25.90
2017-11-23T19:48:30.867Z,22.70
2017-11-23T19:50:59.070Z,18.50
2017-11-23T19:53:29.226Z,17.27
2017-11-23T19:55:57.404Z,15.90
2017-11-23T19:58:26.690Z,15.27
2017-11-23T20:00:54.892Z,15.10
2017-11-23T20:03:23.779Z,13.43
2017-11-23T20:05:52.060Z,11.33
2017-11-23T20:08:20.396Z,12.60
2017-11-23T20:10:49.829Z,11.90
2017-11-23T20:13:22.358Z,12.23
2017-11-23T20:15:50.649Z,11.00
2017-11-23T20:18:22.445Z,12.43
2017-11-23T20:20:51.545Z,13.97
2017-11-23T20:23:22.210Z,14.97
2017-11-23T20:25:51.332Z,14.73
2017-11-23T20:28:26.124Z,15.07
2017-11-23T20:30:54.254Z,14.53
2017-11-23T20:33:22.373Z,15.57
2017-11-23T20:35:51.254Z,13.97
2017-11-23T20:38:21.080Z,12.63
2017-11-23T20:40:51.815Z,11.90
2017-11-23T20:43:25.009Z,12.57
2017-11-23T20:45:53.184Z,13.20
2017-11-23T20:48:22.281Z,15.20
2017-11-23T20:50:50.328Z,12.70
2017-11-23T20:53:18.519Z,12.10
2017-11-23T20:55:52.545Z,11.70
2017-11-23T20:58:20.679Z,11.80
2017-11-23T21:00:50.997Z,11.73
2017-11-23T21:03:22.101Z,12.67
2017-11-23T21:05:51.611Z,11.30
2017-11-23T21:08:19.894Z,12.03
2017-11-23T21:10:49.607Z,10.73
2017-11-23T21:13:17.763Z,9.33
2017-11-23T21:15:53.414Z,11.40
2017-11-23T21:18:21.519Z,11.43
2017-11-23T21:20:49.571Z,11.27
2017-11-23T21:23:17.855Z,12.20
2017-11-23T21:25:45.958Z,12.77
2017-11-23T21:28:14.006Z,12.47
2017-11-23T21:30:42.069Z,12.30
2017-11-23T21:33:10.164Z,12.23
2017-11-23T21:35:39.852Z,12.23
2017-11-23T21:38:14.512Z,13.63
2017-11-23T21:40:42.553Z,12.30
2017-11-23T21:43:10.525Z,12.00
2017-11-23T21:45:38.507Z,11.37
2017-11-23T21:48:06.416Z,12.30
2017-11-23T21:50:34.425Z,12.23
2017-11-23T21:53:02.716Z,12.17
2017-11-23T21:55:30.691Z,12.83
2017-11-23T21:57:58.667Z,11.97
2017-11-23T22:00:26.568Z,11.13
2017-11-23T22:02:56.038Z,10.60
2017-11-23T22:05:24.017Z,11.43
2017-11-23T22:07:51.931Z,9.50
2017-11-23T22:10:19.967Z,8.67
2017-11-23T22:12:47.914Z,9.30
2017-11-23T22:15:15.918Z,9.30
2017-11-23T22:17:44.884Z,8.47
2017-11-23T22:20:19.336Z,9.10
2017-11-23T22:22:47.412Z,9.77
2017-11-23T22:25:15.340Z,8.60
2017-11-23T22:27:43.307Z,9.03
2017-11-23T22:30:12.037Z,8.90
2017-11-23T22:32:40.113Z,8.77
2017-11-23T22:35:10.595Z,8.20
2017-11-23T22:37:38.820Z,8.90
2017-11-23T22:40:07.408Z,7.47
2017-11-23T22:42:35.474Z,8.47
2017-11-23T22:45:03.348Z,8.20
2017-11-23T22:47:31.212Z,7.27
2017-11-23T22:49:59.178Z,7.30
2017-11-23T22:52:27.069Z,8.00
2017-11-23T22:54:54.929Z,8.40
2017-11-23T22:57:29.998Z,8.10
2017-11-23T22:59:57.898Z,8.27
2017-11-23T23:02:25.808Z,8.30
2017-11-23T23:04:55.687Z,7.97
2017-11-23T23:07:24.422Z,9.00
2017-11-23T23:09:54.897Z,8.77
2017-11-23T23:12:22.917Z,8.93
2017-11-23T23:14:52.131Z,8.33
2017-11-23T23:17:20.090Z,8.50
2017-11-23T23:19:48.061Z,7.93
2017-11-23T23:22:16.047Z,10.53
2017-11-23T23:24:45.633Z,7.73
2017-11-23T23:27:22.211Z,8.10
2017-11-23T23:29:50.187Z,7.57
2017-11-23T23:32:18.265Z,8.07
2017-11-23T23:34:54.014Z,7.00
2017-11-23T23:37:22.245Z,7.60
2017-11-23T23:39:50.160Z,7.20
2017-11-23T23:42:22.804Z,7.30
2017-11-23T23:44:53.468Z,6.80
2017-11-23T23:47:21.547Z,6.73
2017-11-23T23:49:49.560Z,7.13
2017-11-23T23:52:17.490Z,7.40
2017-11-23T23:54:45.470Z,7.20
2017-11-23T23:57:13.343Z,7.50
2017-11-23T23:59:45.968Z,6.53
